Time;durP1;ratioP1;P1;durP2;ratioP2;P2;SDS_P1;SDS_P2;PMS_P1;PMS_P2;Temp;Humidity;BMP_temperature;BMP_pressure;BME280_temperature;BME280_humidity;BME280_pressure;Samples;Min_cycle;Max_cycle;Signal;HPM_P1;HPM_P2
2022/01/22 00:00:32;;;;;;;47.15;25.08;;;4.30;99.90;;;;;;4940114;28;20449;-87
2022/01/22 00:02:57;;;;;;;41.00;23.42;;;4.30;99.90;;;;;;4931762;28;20043;-87
2022/01/22 00:05:23;;;;;;;47.55;24.75;;;4.40;99.90;;;;;;4915595;28;20042;-86
2022/01/22 00:07:48;;;;;;;49.67;24.98;;;4.30;99.90;;;;;;4929229;28;20383;-87
2022/01/22 00:10:16;;;;;;;44.75;26.08;;;4.20;99.90;;;;;;4926682;28;20059;-86
2022/01/22 00:15:21;;;;;;;43.50;20.20;;;4.30;99.90;;;;;;4938804;28;20058;-87
2022/01/22 00:17:48;;;;;;;35.47;16.38;;;4.30;99.90;;;;;;4953643;28;20372;-87
2022/01/22 00:20:14;;;;;;;35.78;17.42;;;4.30;99.90;;;;;;4925703;28;20038;-87
2022/01/22 00:22:39;;;;;;;40.40;22.58;;;4.30;99.90;;;;;;4937746;28;20035;-87
2022/01/22 00:25:08;;;;;;;34.15;20.88;;;4.30;99.90;;;;;;4927304;28;20148;-87
2022/01/22 00:27:35;;;;;;;37.28;17.75;;;4.30;99.90;;;;;;4943133;28;20035;-87
2022/01/22 00:30:00;;;;;;;41.47;20.60;;;4.20;99.90;;;;;;4933461;28;20038;-87
2022/01/22 00:32:26;;;;;;;36.38;20.33;;;4.20;99.90;;;;;;4940862;28;20036;-87
2022/01/22 00:34:51;;;;;;;42.80;21.17;;;4.20;99.90;;;;;;4929445;28;20106;-87
2022/01/22 00:37:17;;;;;;;32.05;19.17;;;4.20;99.90;;;;;;4928000;28;20031;-87
2022/01/22 00:39:42;;;;;;;32.15;21.23;;;4.30;99.90;;;;;;4931539;28;20093;-87
2022/01/22 00:42:13;;;;;;;32.15;21.92;;;4.20;99.90;;;;;;4942662;28;20027;-87
2022/01/22 00:44:39;;;;;;;40.47;22.13;;;4.20;99.90;;;;;;4941243;28;20121;-87
2022/01/22 00:47:05;;;;;;;35.00;22.58;;;4.20;99.90;;;;;;4930679;28;20030;-87
2022/01/22 00:49:31;;;;;;;28.90;16.48;;;4.30;99.90;;;;;;4934596;28;20502;-87
2022/01/22 00:51:56;;;;;;;28.42;16.08;;;4.30;99.90;;;;;;4931896;28;20035;-87
2022/01/22 00:54:22;;;;;;;36.22;21.63;;;4.30;99.90;;;;;;4935516;28;20114;-87
2022/01/22 00:56:48;;;;;;;46.13;24.42;;;4.30;99.90;;;;;;4945369;28;20032;-87
2022/01/22 00:59:13;;;;;;;44.13;23.80;;;4.20;99.90;;;;;;4926897;28;20114;-87
2022/01/22 01:01:39;;;;;;;33.50;17.75;;;4.20;99.90;;;;;;4945058;28;20039;-86
2022/01/22 01:04:07;;;;;;;34.38;21.70;;;4.20;99.90;;;;;;4933134;28;20030;-87
2022/01/22 01:06:33;;;;;;;19.70;11.68;;;4.20;99.90;;;;;;4930397;28;20039;-87
2022/01/22 01:09:00;;;;;;;24.98;15.15;;;4.20;99.90;;;;;;4918199;28;20036;-87
2022/01/22 01:11:29;;;;;;;29.38;15.05;;;4.20;99.90;;;;;;4930637;28;20118;-87
2022/01/22 01:13:58;;;;;;;37.70;23.55;;;4.20;99.90;;;;;;4931178;28;20030;-87
2022/01/22 01:33:01;;;;;;;28.02;16.65;;;4.20;99.90;;;;;;4962860;28;20042;-87
2022/01/22 01:35:29;;;;;;;36.03;21.52;;;4.20;99.90;;;;;;4933949;28;20041;-87
2022/01/22 01:37:57;;;;;;;29.50;17.85;;;4.20;99.90;;;;;;4930834;28;20019;-87
2022/01/22 01:40:24;;;;;;;16.30;9.75;;;4.20;99.90;;;;;;4921660;28;20129;-87
2022/01/22 01:43:06;;;;;;;16.63;10.75;;;4.20;99.90;;;;;;4932264;28;20062;-87
2022/01/22 01:45:32;;;;;;;22.85;12.88;;;4.20;99.90;;;;;;4958572;28;20023;-87
2022/01/22 01:48:02;;;;;;;32.25;21.02;;;4.20;99.90;;;;;;4933614;29;20195;-87
2022/01/22 01:50:30;;;;;;;21.88;12.00;;;4.20;99.90;;;;;;4917986;28;20389;-88
2022/01/22 01:53:25;;;;;;;34.72;22.27;;;4.20;99.90;;;;;;4934130;28;20398;-87
2022/01/22 01:58:23;;;;;;;26.00;17.85;;;4.20;99.90;;;;;;4947569;28;20113;-87
2022/01/22 02:00:48;;;;;;;16.70;10.60;;;4.20;99.90;;;;;;4946414;28;20194;-87
2022/01/22 02:03:14;;;;;;;29.92;19.92;;;4.20;99.90;;;;;;4932988;28;20030;-87
2022/01/22 02:05:40;;;;;;;35.75;18.60;;;4.20;99.90;;;;;;4935335;28;20031;-87
2022/01/22 02:08:06;;;;;;;34.15;19.73;;;4.20;99.90;;;;;;4932977;28;20031;-88
2022/01/22 02:10:36;;;;;;;32.78;18.92;;;4.20;99.90;;;;;;4943917;28;20031;-87
2022/01/22 02:24:07;;;;;;;30.17;16.48;;;4.20;99.90;;;;;;4943053;28;20093;-87
2022/01/22 02:26:32;;;;;;;32.25;19.38;;;4.20;99.90;;;;;;4929892;28;20781;-88
2022/01/22 02:28:58;;;;;;;21.70;14.13;;;4.20;99.90;;;;;;4929584;28;20066;-87
2022/01/22 02:32:12;;;;;;;26.55;18.38;;;4.20;99.90;;;;;;4935124;28;20031;-87
2022/01/22 02:34:31;;;;;;;43.60;22.73;;;4.20;99.90;;;;;;4953195;28;20122;-87
2022/01/22 02:37:01;;;;;;;27.10;16.98;;;4.10;99.90;;;;;;4929139;28;20827;-87
2022/01/22 02:39:41;;;;;;;32.88;19.70;;;4.10;99.90;;;;;;4931354;28;20190;-87
2022/01/22 02:42:07;;;;;;;30.35;19.30;;;4.10;99.90;;;;;;4936955;28;20030;-87
2022/01/22 02:44:44;;;;;;;40.00;19.45;;;4.20;99.90;;;;;;4919971;28;20058;-87
2022/01/22 02:47:09;;;;;;;18.70;10.27;;;4.20;99.90;;;;;;4929040;28;20838;-87
2022/01/22 02:49:35;;;;;;;34.55;19.27;;;4.20;99.90;;;;;;4934830;28;20036;-87
2022/01/22 02:52:03;;;;;;;31.80;19.50;;;4.20;99.90;;;;;;4934294;28;20134;-87
2022/01/22 02:54:29;;;;;;;39.75;22.88;;;4.20;99.90;;;;;;4928015;28;20039;-88
2022/01/22 02:56:54;;;;;;;40.60;23.65;;;4.20;99.90;;;;;;4930451;28;20024;-87
2022/01/22 02:59:22;;;;;;;40.80;23.38;;;4.20;99.90;;;;;;4918024;28;20031;-87
2022/01/22 03:01:48;;;;;;;32.58;14.45;;;4.20;99.90;;;;;;4957755;28;20074;-87
2022/01/22 03:04:14;;;;;;;24.25;12.80;;;4.10;99.90;;;;;;4946189;28;20065;-87
2022/01/22 03:06:39;;;;;;;30.52;15.75;;;4.10;99.90;;;;;;4931659;28;20066;-87
2022/01/22 03:09:08;;;;;;;39.15;21.90;;;4.10;99.90;;;;;;4933332;28;20031;-87
2022/01/22 03:11:42;;;;;;;42.33;24.85;;;4.20;99.90;;;;;;4956480;28;20106;-88
2022/01/22 03:22:22;;;;;;;40.75;22.95;;;4.20;99.90;;;;;;4943898;28;20133;-87
2022/01/22 03:27:33;;;;;;;34.17;19.63;;;4.10;99.90;;;;;;4957903;28;20120;-87
2022/01/22 03:29:59;;;;;;;43.40;25.08;;;4.20;99.90;;;;;;4945462;28;20113;-86
2022/01/22 03:32:28;;;;;;;53.58;27.80;;;4.20;99.90;;;;;;4918641;28;20163;-85
2022/01/22 03:35:01;;;;;;;49.25;28.17;;;4.20;99.90;;;;;;4926405;28;20035;-86
2022/01/22 03:37:27;;;;;;;45.90;25.65;;;4.20;99.90;;;;;;4943561;28;20067;-86
2022/01/22 03:39:54;;;;;;;51.90;29.00;;;4.20;99.90;;;;;;4929299;28;20504;-85
2022/01/22 03:42:19;;;;;;;53.05;30.63;;;4.20;99.90;;;;;;4945519;28;20054;-86
2022/01/22 03:44:45;;;;;;;38.30;21.02;;;4.20;99.90;;;;;;4929135;28;20685;-86
2022/01/22 03:47:10;;;;;;;41.50;21.92;;;4.20;99.90;;;;;;4928209;28;20440;-86
2022/01/22 03:49:36;;;;;;;43.53;23.23;;;4.20;99.90;;;;;;4936402;28;20491;-85
2022/01/22 03:52:02;;;;;;;45.22;26.15;;;4.30;99.90;;;;;;4929724;28;20116;-85
2022/01/22 03:54:27;;;;;;;32.08;18.50;;;4.20;99.90;;;;;;4915602;28;20035;-86
2022/01/22 03:56:53;;;;;;;29.58;17.70;;;4.20;99.90;;;;;;4946196;28;20052;-86
2022/01/22 03:59:19;;;;;;;50.92;28.80;;;4.30;99.90;;;;;;4956243;28;20391;-85
2022/01/22 04:04:27;;;;;;;48.53;27.42;;;4.20;99.90;;;;;;4947715;28;20062;-85
2022/01/22 04:09:42;;;;;;;46.17;26.70;;;4.20;99.90;;;;;;4944695;28;20082;-85
2022/01/22 04:12:10;;;;;;;36.72;20.48;;;4.20;99.90;;;;;;4923275;28;20034;-85
2022/01/22 04:14:36;;;;;;;48.40;29.05;;;4.20;99.90;;;;;;4928410;28;20031;-86
2022/01/22 04:17:22;;;;;;;37.90;23.02;;;4.20;99.90;;;;;;4917950;28;20063;-86
2022/01/22 04:25:21;;;;;;;47.78;29.20;;;4.30;99.90;;;;;;4946369;28;20031;-85
2022/01/22 04:27:48;;;;;;;44.10;22.55;;;4.30;99.90;;;;;;4927136;28;20030;-85
2022/01/22 04:30:14;;;;;;;55.58;31.40;;;4.30;99.90;;;;;;4945303;28;20034;-85
2022/01/22 04:32:39;;;;;;;56.35;32.17;;;4.30;99.90;;;;;;4942200;28;20023;-85
2022/01/22 04:35:05;;;;;;;52.00;32.03;;;4.30;99.90;;;;;;4947675;28;20026;-86
2022/01/22 04:37:32;;;;;;;50.63;27.73;;;4.30;99.90;;;;;;4930876;28;20031;-85
2022/01/22 04:39:57;;;;;;;55.10;27.60;;;4.30;99.90;;;;;;4928833;28;20035;-85
2022/01/22 04:42:24;;;;;;;51.83;29.42;;;4.30;99.90;;;;;;4932793;28;20027;-85
2022/01/22 04:47:46;;;;;;;55.38;31.58;;;4.30;99.90;;;;;;4945796;28;20034;-85
2022/01/22 04:55:36;;;;;;;55.10;32.17;;;4.30;99.90;;;;;;4935778;28;20028;-85
2022/01/22 04:58:05;;;;;;;51.45;26.45;;;4.30;99.90;;;;;;4928480;28;20551;-85
2022/01/22 05:00:32;;;;;;;57.10;29.77;;;4.30;99.90;;;;;;4909107;28;20054;-85
2022/01/22 05:02:58;;;;;;;44.20;24.38;;;4.30;99.90;;;;;;4923025;28;20530;-85
2022/01/22 05:05:24;;;;;;;54.08;29.75;;;4.30;99.90;;;;;;4913433;29;20042;-85
2022/01/22 05:07:50;;;;;;;58.35;30.27;;;4.40;99.90;;;;;;4928989;28;20035;-85
2022/01/22 05:10:16;;;;;;;54.03;28.58;;;4.30;99.90;;;;;;4929177;28;20027;-85
2022/01/22 05:12:41;;;;;;;49.97;25.48;;;4.40;99.90;;;;;;4932097;28;20066;-85
2022/01/22 05:15:07;;;;;;;44.90;20.48;;;4.40;99.90;;;;;;4932486;28;20380;-85
2022/01/22 05:17:38;;;;;;;61.97;32.10;;;4.40;99.90;;;;;;4944957;28;20039;-85
2022/01/22 05:20:19;;;;;;;58.10;32.33;;;4.50;99.90;;;;;;4917863;28;20048;-86
2022/01/22 05:25:22;;;;;;;59.58;29.38;;;4.40;99.90;;;;;;4928922;28;20408;-85
2022/01/22 05:30:50;;;;;;;61.25;29.65;;;4.40;99.90;;;;;;4942988;28;20500;-86
2022/01/22 05:38:32;;;;;;;68.53;33.33;;;4.50;99.90;;;;;;4932717;28;20046;-86
2022/01/22 05:40:57;;;;;;;55.88;31.25;;;4.50;99.90;;;;;;4931277;28;20720;-86
2022/01/22 05:43:23;;;;;;;63.70;32.88;;;4.50;99.90;;;;;;4930769;28;20031;-86
2022/01/22 05:45:48;;;;;;;78.40;38.92;;;4.50;99.90;;;;;;4938653;28;20038;-86
2022/01/22 05:48:14;;;;;;;60.53;31.73;;;4.50;99.90;;;;;;4933441;28;20094;-86
2022/01/22 05:53:15;;;;;;;58.08;30.70;;;4.50;99.90;;;;;;4945711;28;20043;-86
2022/01/22 05:59:35;;;;;;;82.70;36.38;;;4.50;99.90;;;;;;4946363;28;20063;-86
2022/01/22 06:01:14;;;;;;;67.97;32.33;;;4.50;99.90;;;;;;4942341;28;20122;-86
2022/01/22 06:03:39;;;;;;;76.53;35.13;;;4.50;99.90;;;;;;4938512;28;20130;-86
2022/01/22 06:06:05;;;;;;;83.03;34.95;;;4.50;99.90;;;;;;4932516;28;20407;-86
2022/01/22 06:08:33;;;;;;;66.40;27.80;;;4.50;99.90;;;;;;4944103;28;20472;-86
2022/01/22 06:11:07;;;;;;;83.50;36.95;;;4.50;99.90;;;;;;4944709;28;20062;-86
2022/01/22 06:13:43;;;;;;;83.72;34.78;;;4.50;99.90;;;;;;4922855;28;20046;-87
2022/01/22 06:16:14;;;;;;;65.30;29.75;;;4.60;99.90;;;;;;4938569;28;20063;-86
2022/01/22 06:18:40;;;;;;;65.63;29.25;;;4.60;99.90;;;;;;4922774;28;20101;-87
2022/01/22 06:21:06;;;;;;;57.45;25.67;;;4.60;99.90;;;;;;4920376;28;20086;-86
2022/01/22 06:23:32;;;;;;;65.28;29.15;;;4.60;99.90;;;;;;4932833;28;20037;-86
2022/01/22 06:26:00;;;;;;;64.88;27.00;;;4.60;99.90;;;;;;4957266;28;20094;-85
2022/01/22 06:28:29;;;;;;;62.67;25.92;;;4.60;99.90;;;;;;4925427;28;20031;-87
2022/01/22 06:30:55;;;;;;;74.90;30.10;;;4.60;99.90;;;;;;4940263;28;20462;-86
2022/01/22 06:33:21;;;;;;;55.03;25.95;;;4.50;99.90;;;;;;4945000;28;20046;-85
2022/01/22 06:35:47;;;;;;;69.63;28.98;;;4.60;99.90;;;;;;4944388;28;20062;-86
2022/01/22 06:38:13;;;;;;;62.13;26.15;;;4.60;99.90;;;;;;4934379;28;20084;-86
2022/01/22 06:43:04;;;;;;;54.72;24.00;;;4.60;99.90;;;;;;4945994;28;20023;-85
2022/01/22 06:45:30;;;;;;;57.28;26.33;;;4.70;99.90;;;;;;4931059;28;20415;-86
2022/01/22 06:47:55;;;;;;;61.95;25.30;;;4.60;99.90;;;;;;4932498;28;20027;-86
2022/01/22 06:50:21;;;;;;;57.50;24.05;;;4.70;99.90;;;;;;4931392;28;20041;-86
2022/01/22 06:52:47;;;;;;;51.95;25.23;;;4.70;99.90;;;;;;4932485;28;20038;-86
2022/01/22 06:55:16;;;;;;;53.05;25.45;;;4.70;99.90;;;;;;4909317;28;20039;-86
2022/01/22 06:57:42;;;;;;;51.42;24.13;;;4.70;99.90;;;;;;4929883;28;20038;-86
2022/01/22 07:00:08;;;;;;;67.22;27.15;;;4.70;99.90;;;;;;4928797;28;20053;-87
2022/01/22 07:02:36;;;;;;;69.63;29.70;;;4.70;99.90;;;;;;4928240;28;20047;-87
2022/01/22 07:05:01;;;;;;;67.65;28.15;;;4.70;99.90;;;;;;4943406;28;20038;-87
2022/01/22 07:07:27;;;;;;;73.13;27.90;;;4.70;99.90;;;;;;4932950;28;20035;-87
2022/01/22 07:09:52;;;;;;;54.97;21.58;;;4.70;99.90;;;;;;4944552;28;20054;-87
2022/01/22 07:12:18;;;;;;;73.88;26.75;;;4.70;99.90;;;;;;4944339;28;20031;-87
2022/01/22 07:14:49;;;;;;;59.20;25.42;;;4.70;99.90;;;;;;4931790;28;20030;-87
2022/01/22 07:17:15;;;;;;;74.30;29.75;;;4.80;99.90;;;;;;4907463;28;20039;-87
2022/01/22 07:19:43;;;;;;;67.13;26.95;;;4.70;99.90;;;;;;4908479;28;20039;-84
2022/01/22 07:22:30;;;;;;;58.60;27.20;;;4.70;99.90;;;;;;4915616;28;20110;-87
2022/01/22 07:24:54;;;;;;;63.97;25.40;;;4.70;99.90;;;;;;4946944;28;20042;-87
2022/01/22 07:27:20;;;;;;;66.07;26.45;;;4.70;99.90;;;;;;4927886;28;20387;-87
2022/01/22 07:29:48;;;;;;;55.20;24.33;;;4.70;99.90;;;;;;4931797;28;20122;-87
2022/01/22 07:32:26;;;;;;;57.72;23.02;;;4.70;99.90;;;;;;4931836;28;20675;-87
2022/01/22 07:34:52;;;;;;;55.97;23.80;;;4.70;99.90;;;;;;4911831;28;20105;-87
2022/01/22 07:37:21;;;;;;;55.25;23.40;;;4.70;99.90;;;;;;4928379;28;20082;-87
2022/01/22 07:39:47;;;;;;;60.65;24.48;;;4.80;99.90;;;;;;4915522;28;20034;-87
2022/01/22 07:42:12;;;;;;;71.15;26.05;;;4.80;99.90;;;;;;4929111;28;20023;-87
2022/01/22 07:44:38;;;;;;;60.08;24.77;;;4.80;99.90;;;;;;4926957;28;20696;-87
2022/01/22 07:47:05;;;;;;;49.38;21.30;;;4.80;99.90;;;;;;4917233;28;20184;-87
2022/01/22 07:49:31;;;;;;;77.82;29.02;;;4.80;99.90;;;;;;4916322;28;20033;-87
2022/01/22 07:51:56;;;;;;;81.68;32.85;;;4.80;99.90;;;;;;4930907;28;20551;-87
2022/01/22 07:54:23;;;;;;;73.03;30.75;;;4.80;99.90;;;;;;4940150;29;20024;-87
2022/01/22 07:56:49;;;;;;;78.72;31.77;;;4.80;99.90;;;;;;4933129;28;20023;-85
2022/01/22 07:59:15;;;;;;;47.00;19.48;;;4.90;99.90;;;;;;4927434;28;20030;-87
2022/01/22 08:01:40;;;;;;;72.30;29.83;;;4.90;99.90;;;;;;4928834;28;20100;-87
2022/01/22 08:04:06;;;;;;;71.65;31.38;;;4.90;99.90;;;;;;4930467;28;20082;-87
2022/01/22 08:06:32;;;;;;;69.47;26.48;;;5.00;99.90;;;;;;4918648;28;20567;-87
2022/01/22 08:08:57;;;;;;;55.20;25.25;;;5.00;99.90;;;;;;4944756;28;20395;-87
2022/01/22 08:11:23;;;;;;;68.40;28.27;;;4.90;99.90;;;;;;4929793;28;20089;-87
2022/01/22 08:13:50;;;;;;;85.35;33.35;;;4.90;99.90;;;;;;4931952;28;20043;-87
2022/01/22 08:16:17;;;;;;;72.93;27.20;;;5.00;99.90;;;;;;4929070;28;20062;-89
2022/01/22 08:18:48;;;;;;;62.05;27.10;;;5.00;99.90;;;;;;4931767;28;20531;-89
2022/01/22 08:21:13;;;;;;;70.43;31.15;;;5.00;99.90;;;;;;4916213;28;20035;-89
2022/01/22 08:23:39;;;;;;;68.45;26.17;;;5.00;99.90;;;;;;4941838;28;20144;-89
2022/01/22 08:26:09;;;;;;;65.10;28.45;;;5.00;99.90;;;;;;4932524;28;20499;-89
2022/01/22 08:28:53;;;;;;;67.88;29.90;;;5.00;99.90;;;;;;4929542;28;20892;-88
2022/01/22 08:31:39;;;;;;;62.97;27.25;;;5.10;99.90;;;;;;4927734;29;20511;-89
2022/01/22 08:36:51;;;;;;;65.22;30.08;;;5.10;99.90;;;;;;4957121;28;20041;-89
2022/01/22 08:39:18;;;;;;;52.47;23.23;;;5.10;99.90;;;;;;4909082;28;20550;-89
2022/01/22 08:41:45;;;;;;;57.08;25.65;;;5.10;99.90;;;;;;4909661;28;20101;-89
2022/01/22 08:44:10;;;;;;;55.92;20.55;;;5.10;99.90;;;;;;4925339;28;20106;-89
2022/01/22 08:46:44;;;;;;;44.97;20.05;;;5.10;99.90;;;;;;4930736;28;20034;-89
2022/01/22 08:49:10;;;;;;;44.85;23.67;;;5.10;99.90;;;;;;4913006;28;20500;-89
2022/01/22 08:51:38;;;;;;;48.00;22.88;;;5.10;99.90;;;;;;4920943;28;20043;-89
2022/01/22 08:54:05;;;;;;;42.13;19.05;;;5.20;99.90;;;;;;4915785;28;20167;-89
2022/01/22 08:56:31;;;;;;;37.63;18.45;;;5.20;99.90;;;;;;4906605;28;20095;-89
2022/01/22 08:58:56;;;;;;;53.42;26.27;;;5.20;99.90;;;;;;4913030;28;20039;-89
2022/01/22 09:01:22;;;;;;;51.97;23.80;;;5.20;99.90;;;;;;4929386;28;20034;-88
2022/01/22 09:03:49;;;;;;;67.63;29.30;;;5.30;99.90;;;;;;4928839;28;20038;-89
2022/01/22 09:06:21;;;;;;;74.97;32.63;;;5.30;99.90;;;;;;4929138;28;20035;-90
2022/01/22 09:08:49;;;;;;;74.05;32.45;;;5.40;99.90;;;;;;4932892;28;20047;-90
2022/01/22 09:11:16;;;;;;;65.15;28.10;;;5.40;99.90;;;;;;4892935;28;20038;-90
2022/01/22 09:13:42;;;;;;;62.05;30.00;;;5.50;99.90;;;;;;4916336;28;20038;-89
2022/01/22 09:16:08;;;;;;;62.42;27.35;;;5.30;99.90;;;;;;4918465;28;20045;-90
2022/01/22 09:18:34;;;;;;;55.15;26.33;;;5.40;99.90;;;;;;4911737;28;20055;-90
2022/01/22 09:21:04;;;;;;;76.82;29.45;;;5.50;99.90;;;;;;4940700;28;20121;-89
2022/01/22 09:23:30;;;;;;;83.47;34.47;;;5.60;99.90;;;;;;4917515;28;20042;-89
2022/01/22 09:25:56;;;;;;;76.35;34.78;;;5.60;99.90;;;;;;4939496;28;20114;-89
2022/01/22 09:28:22;;;;;;;58.67;25.50;;;5.50;99.90;;;;;;4947054;28;20118;-89
2022/01/22 09:30:48;;;;;;;71.38;33.08;;;5.60;99.90;;;;;;4918012;28;20027;-86
2022/01/22 09:33:14;;;;;;;48.85;23.38;;;5.60;99.90;;;;;;4931460;28;20027;-87
2022/01/22 09:35:41;;;;;;;56.80;26.13;;;5.60;99.90;;;;;;4933793;28;20608;-87
2022/01/22 09:38:06;;;;;;;64.55;29.70;;;5.60;99.90;;;;;;4918704;28;20454;-87
2022/01/22 09:40:32;;;;;;;57.40;25.00;;;5.50;99.90;;;;;;4927229;28;20130;-87
2022/01/22 09:42:59;;;;;;;63.85;28.77;;;5.60;99.90;;;;;;4934778;28;20043;-87
2022/01/22 09:45:26;;;;;;;47.70;22.92;;;5.60;99.90;;;;;;4920890;28;20126;-87
2022/01/22 09:47:52;;;;;;;51.00;26.52;;;5.60;99.90;;;;;;4929902;28;20034;-87
2022/01/22 09:50:18;;;;;;;48.58;23.77;;;5.60;99.90;;;;;;4927748;28;20067;-86
2022/01/22 09:52:45;;;;;;;34.08;12.77;;;5.60;99.90;;;;;;4927891;28;20494;-87
2022/01/22 09:55:10;;;;;;;30.17;13.55;;;5.70;99.90;;;;;;4930309;28;20530;-87
2022/01/22 09:57:37;;;;;;;33.28;15.88;;;5.60;99.90;;;;;;4945302;28;20031;-87
2022/01/22 10:00:10;;;;;;;37.67;20.77;;;5.60;99.90;;;;;;4925496;28;20039;-87
2022/01/22 10:02:42;;;;;;;36.47;18.55;;;5.70;99.90;;;;;;4948533;28;20038;-87
2022/01/22 10:05:31;;;;;;;36.15;18.52;;;5.70;99.90;;;;;;4947473;28;20023;-87
2022/01/22 10:08:16;;;;;;;38.10;20.35;;;5.70;99.90;;;;;;4933914;28;20034;-87
2022/01/22 10:10:41;;;;;;;34.40;19.25;;;5.80;99.90;;;;;;4947407;28;20051;-86
2022/01/22 10:13:07;;;;;;;40.10;20.17;;;5.80;99.90;;;;;;4926478;28;20046;-87
2022/01/22 10:15:35;;;;;;;41.95;20.33;;;5.80;99.90;;;;;;4943994;28;20039;-86
2022/01/22 10:18:02;;;;;;;37.75;19.17;;;5.80;99.90;;;;;;4947545;28;20025;-87
2022/01/22 10:20:39;;;;;;;39.00;21.20;;;5.80;99.90;;;;;;4907572;28;20043;-85
2022/01/22 10:23:10;;;;;;;38.15;20.20;;;5.80;99.90;;;;;;4903125;28;20070;-87
2022/01/22 10:25:44;;;;;;;38.70;17.65;;;5.90;99.90;;;;;;4951049;28;20035;-87
2022/01/22 10:28:20;;;;;;;34.72;18.40;;;5.90;99.90;;;;;;4926483;28;20027;-87
2022/01/22 10:30:46;;;;;;;44.85;21.25;;;6.00;99.90;;;;;;4916822;28;20053;-87
2022/01/22 10:33:30;;;;;;;35.22;18.80;;;6.00;99.90;;;;;;4894795;29;20039;-87
2022/01/22 10:36:16;;;;;;;46.67;22.42;;;6.00;99.90;;;;;;4930003;28;20125;-87
2022/01/22 10:39:01;;;;;;;46.78;21.77;;;6.00;99.90;;;;;;4917939;28;20074;-87
2022/01/22 10:41:49;;;;;;;54.45;26.55;;;6.10;99.90;;;;;;4879855;29;20116;-87
2022/01/22 10:44:23;;;;;;;46.38;23.42;;;6.10;99.90;;;;;;4899711;28;20038;-87
2022/01/22 10:47:03;;;;;;;55.40;26.13;;;6.10;99.90;;;;;;4877325;28;20043;-87
2022/01/22 10:49:28;;;;;;;52.65;24.60;;;6.10;99.90;;;;;;4898117;28;20563;-87
2022/01/22 10:52:03;;;;;;;59.03;28.85;;;6.20;99.90;;;;;;4901535;29;20224;-88
2022/01/22 10:54:35;;;;;;;60.45;30.52;;;6.10;99.90;;;;;;4913874;28;20035;-87
2022/01/22 10:57:23;;;;;;;69.18;33.13;;;6.20;99.90;;;;;;4918835;28;20035;-88
2022/01/22 11:00:01;;;;;;;61.83;27.88;;;6.20;99.90;;;;;;4892141;29;20032;-87
2022/01/22 11:02:38;;;;;;;80.15;33.85;;;6.30;99.90;;;;;;4911399;28;20427;-88
2022/01/22 11:05:04;;;;;;;64.35;27.15;;;6.20;99.90;;;;;;4902297;29;20114;-88
2022/01/22 11:07:36;;;;;;;74.75;33.38;;;6.30;99.90;;;;;;4917418;28;20023;-86
2022/01/22 11:10:02;;;;;;;52.78;23.23;;;6.30;99.90;;;;;;4918247;28;20070;-88
2022/01/22 11:12:27;;;;;;;75.43;34.40;;;6.30;99.90;;;;;;4919242;28;20462;-88
2022/01/22 11:14:53;;;;;;;76.78;32.95;;;6.40;99.90;;;;;;4933240;28;20540;-87
2022/01/22 11:17:21;;;;;;;79.75;35.47;;;6.40;99.90;;;;;;4931096;28;20536;-87
2022/01/22 11:19:49;;;;;;;77.57;35.85;;;6.40;99.90;;;;;;4901292;28;20053;-87
2022/01/22 11:22:16;;;;;;;67.22;29.05;;;6.30;99.90;;;;;;4911528;28;20087;-87
2022/01/22 11:24:43;;;;;;;58.47;27.77;;;6.50;99.90;;;;;;4905652;28;20082;-87
2022/01/22 11:27:11;;;;;;;61.03;25.42;;;6.40;99.90;;;;;;4928578;28;20443;-87
2022/01/22 11:29:40;;;;;;;57.38;26.50;;;6.50;99.90;;;;;;4916920;29;20023;-88
2022/01/22 11:32:11;;;;;;;47.03;22.13;;;6.50;99.90;;;;;;4916476;28;20051;-88
2022/01/22 11:34:37;;;;;;;48.47;22.45;;;6.40;99.90;;;;;;4944249;28;20035;-88
2022/01/22 11:37:21;;;;;;;47.03;21.17;;;6.50;99.90;;;;;;4909682;28;20024;-88
2022/01/22 11:39:49;;;;;;;41.42;18.27;;;6.40;99.90;;;;;;4942068;28;20035;-88
2022/01/22 11:42:15;;;;;;;30.48;15.63;;;6.40;99.90;;;;;;4929818;28;20031;-88
2022/01/22 11:44:50;;;;;;;31.25;14.23;;;6.40;99.90;;;;;;4926488;28;20024;-88
2022/01/22 11:47:20;;;;;;;34.83;15.82;;;6.50;99.90;;;;;;4913514;28;20051;-88
2022/01/22 11:50:08;;;;;;;29.30;14.32;;;6.50;99.90;;;;;;4961546;28;20187;-88
2022/01/22 11:55:27;;;;;;;33.50;14.80;;;6.60;99.90;;;;;;4879961;28;20416;-87
2022/01/22 11:57:55;;;;;;;33.05;13.82;;;6.70;99.90;;;;;;4892689;28;20035;-87
2022/01/22 12:00:25;;;;;;;29.35;14.05;;;6.80;99.90;;;;;;4926466;28;20097;-88
2022/01/22 12:03:26;;;;;;;35.63;14.23;;;6.70;99.90;;;;;;4930430;28;20043;-88
2022/01/22 12:06:08;;;;;;;30.60;12.93;;;6.80;99.90;;;;;;4488723;29;10000064;-88
2022/01/22 12:09:12;;;;;;;27.00;12.40;;;6.80;99.90;;;;;;4948410;28;20039;-87
2022/01/22 12:14:55;;;;;;;28.48;13.55;;;6.70;99.90;;;;;;4929621;28;20088;-87
2022/01/22 12:17:46;;;;;;;33.83;15.85;;;6.80;99.90;;;;;;4937624;28;20035;-88
2022/01/22 12:23:52;;;;;;;29.23;14.25;;;6.70;99.90;;;;;;4937164;28;20485;-88
2022/01/22 12:26:37;;;;;;;37.50;15.43;;;6.60;99.90;;;;;;4899488;28;21858;-88
2022/01/22 12:29:31;;;;;;;29.13;15.20;;;6.60;99.90;;;;;;4890849;29;20115;-87
2022/01/22 12:32:33;;;;;;;27.52;9.48;;;6.60;99.90;;;;;;4937914;28;20061;-87
2022/01/22 12:35:18;;;;;;;28.35;13.55;;;6.50;99.90;;;;;;4914486;28;20050;-87
2022/01/22 12:38:02;;;;;;;31.00;14.38;;;6.70;99.90;;;;;;4899357;28;20033;-88
2022/01/22 12:40:31;;;;;;;32.97;13.75;;;6.70;99.90;;;;;;4930050;28;20613;-87
2022/01/22 12:43:06;;;;;;;32.83;14.25;;;6.80;99.90;;;;;;4931012;28;20032;-88
2022/01/22 12:45:34;;;;;;;26.83;11.35;;;6.70;99.90;;;;;;4914486;29;20043;-87
2022/01/22 12:48:00;;;;;;;24.73;10.70;;;6.70;99.90;;;;;;4948079;28;20034;-87
2022/01/22 12:50:30;;;;;;;31.75;11.93;;;6.60;99.90;;;;;;4951292;28;20080;-87
2022/01/22 12:53:01;;;;;;;27.02;10.27;;;6.60;99.90;;;;;;4932952;28;20045;-87
2022/01/22 12:55:48;;;;;;;21.75;10.43;;;6.60;99.90;;;;;;4930747;28;20603;-88
2022/01/22 12:58:43;;;;;;;18.25;10.20;;;6.70;99.90;;;;;;4930158;28;20026;-87
2022/01/22 13:01:24;;;;;;;21.40;11.27;;;6.60;99.90;;;;;;4912722;29;20075;-88
2022/01/22 13:03:51;;;;;;;22.35;10.38;;;6.60;99.90;;;;;;4915069;28;20040;-88
2022/01/22 13:06:18;;;;;;;19.73;10.35;;;6.50;99.90;;;;;;4945478;28;20041;-87
2022/01/22 13:08:46;;;;;;;20.92;10.40;;;6.60;99.90;;;;;;4933078;28;20031;-87
2022/01/22 13:11:18;;;;;;;20.35;10.48;;;6.60;99.90;;;;;;4923779;28;20062;-87
2022/01/22 13:13:50;;;;;;;23.20;10.73;;;6.60;99.90;;;;;;4928441;28;20467;-87
2022/01/22 13:16:17;;;;;;;19.80;11.07;;;6.60;99.90;;;;;;4932208;28;20031;-87
2022/01/22 13:18:59;;;;;;;32.70;12.05;;;6.60;99.90;;;;;;4932593;28;20123;-87
2022/01/22 13:21:27;;;;;;;17.70;9.32;;;6.60;99.90;;;;;;4931759;28;20050;-87
2022/01/22 13:24:04;;;;;;;20.38;10.20;;;6.60;99.90;;;;;;4938579;28;21049;-87
2022/01/22 13:26:42;;;;;;;22.23;11.68;;;6.60;99.90;;;;;;4918143;28;20088;-87
2022/01/22 13:29:28;;;;;;;25.02;11.30;;;6.60;99.90;;;;;;4947509;28;20046;-86
2022/01/22 13:31:59;;;;;;;20.45;11.73;;;6.60;99.90;;;;;;4947587;28;20043;-87
2022/01/22 13:34:36;;;;;;;23.58;10.85;;;6.60;99.90;;;;;;4933347;28;20563;-87
2022/01/22 13:40:11;;;;;;;18.27;9.50;;;6.50;99.90;;;;;;4946726;28;20073;-87
2022/01/22 13:48:32;;;;;;;29.35;12.88;;;6.40;99.90;;;;;;4927192;29;20473;-87
2022/01/22 13:50:58;;;;;;;28.52;12.77;;;6.40;99.90;;;;;;4930887;28;20023;-87
2022/01/22 13:53:24;;;;;;;26.92;12.88;;;6.50;99.90;;;;;;4932733;28;20042;-88
2022/01/22 13:56:05;;;;;;;26.42;12.70;;;6.50;99.90;;;;;;4928372;28;20373;-88
2022/01/22 13:58:31;;;;;;;26.80;14.40;;;6.40;99.90;;;;;;4918738;28;20034;-88
2022/01/22 14:01:04;;;;;;;35.97;14.23;;;6.40;99.90;;;;;;4934047;28;20035;-88
2022/01/22 14:03:40;;;;;;;28.52;12.50;;;6.30;99.90;;;;;;4941901;28;20034;-88
2022/01/22 14:06:06;;;;;;;28.25;13.65;;;6.40;99.90;;;;;;4947692;28;20058;-88
2022/01/22 14:08:34;;;;;;;32.92;14.73;;;6.30;99.90;;;;;;4943647;28;20046;-87
2022/01/22 14:11:13;;;;;;;18.10;10.88;;;6.30;99.90;;;;;;4921269;28;20069;-88
2022/01/22 14:13:39;;;;;;;33.35;14.80;;;6.30;99.90;;;;;;4917172;28;20039;-87
2022/01/22 14:16:16;;;;;;;28.55;14.60;;;6.30;99.90;;;;;;4933290;28;20496;-87
2022/01/22 14:18:43;;;;;;;26.27;13.90;;;6.20;99.90;;;;;;4943305;28;20074;-88
2022/01/22 14:21:18;;;;;;;23.98;13.18;;;6.30;99.90;;;;;;4930292;28;20101;-87
2022/01/22 14:23:46;;;;;;;23.77;12.38;;;6.30;99.90;;;;;;4932700;28;20055;-87
2022/01/22 14:26:15;;;;;;;28.85;14.60;;;6.30;99.90;;;;;;4915429;28;20028;-88
2022/01/22 14:28:45;;;;;;;26.10;12.45;;;6.30;99.90;;;;;;4932157;28;20050;-88
2022/01/22 14:31:22;;;;;;;32.88;16.65;;;6.30;99.90;;;;;;4927486;28;20031;-87